Airfield :
LOGIN :

Register | Disclaimer

   EN    FR    IT 

 










Legend :    VFR   Marginal VFR   IFR   Intensive IFR   Very Intensive IFR
Visi :
Ceiling :
>= 8 km
>= 3000ft
5 to 8 km
1000 to 3000 ft
1500m to 5 km
500 to 1000 ft
800 to 1500m
200 to 500 ft
< 800m
< 200 ft
Symbols :   Thunderstorms  Fog  Heavy snow  Heavy precipitations  Wind > 20 kt
SIGMETs :     Misc.  Thunderstorms  Icing  Turbulence  Mountain Waves  Volcanic Ashes






- Airport Elevation : 33 ft
- IATA code : MHZ


EGUN - RAF Mildenhall

CURRENT METAR :
  • 171813Z AUTO 34013G15KT 9999 -RA FEW027 SCT034 BKN042 BKN050 13/12 A2975 RMK AO2 RAB13 SLP078 $

EXPIRED METARs :
  • 171756Z 26006KT 9999 BKN047 14/11 A2974 RMK AO2A SLP074 60005 T01380110 10143 20111 53005 $
  • 171656Z 26005KT 9999 FEW030 14/11 A2973 RMK AO2A DZB01E09DZB09E09RAB10E11RAB11E11RAB13E26RAB28E32RAB32E32RAB35E37RAB37E37 SLP071 P0000 T01380110 $
  • 171637Z 27007KT 9999 SCT020 14/12 A2973 RMK AO2A DZB01E09DZB09E09RAB10E11RAB11E11RAB13E26RAB28E32RAB32E32RAB35E37RA B37 SLP071 $
  • 171613Z 30004KT 9999 -RA FEW017 14/14 A2973 RMK AO2A DZB01E09DZB09E09RAB10E11RAB11E11RAB13 SLP071 $
  • 171601Z AUTO 32006KT 9999 -DZ FEW018 13/13 A2972 RMK AO2 DZB01 SLP067 $

TAF AMD TAF EGUN
Valid from the 17 at 17:00 until the 18 at 18:00 UTC


171734Z 1717/1818 30009KT 9999 SCT030 QNH2966INS
TEMPO 1717/1719 30010G15KT 8000 -TSRA BKN020CB
BECMG 1720/1721 29006KT 6000 BR SCT060 QNH2979INS
BECMG 1805/1806 25010G15KT 8000 -SHRA BKN030 QNH2989INS
BECMG 1810/1811 28009KT 9999 NSW SCT030 QNH2991INS
TEMPO 1812/1818 8000 -TSRA BKN020CB TX13/1812Z TN05/1803Z



MET'MAP, your aeronautical weather chart ! - Copyright ORBIFLY December 2007 - Disclaimer

ORBIFLY MET'MAP TEAM :

Programming & Development : Alexandra Zaïnal
Concept & original design : Baudouin d'Aumeries
Assistance for programming : Marc-Olivier Méhu
Technical & hardware support : Manuel Goepfert

Contact : metmap@orbifly.com




SOURCES & CREDITS :

   NOAA